Disclaimer

Please do not use the information listed here in-flight or in-navigation, as they are not provided to us by the airports but are provided by volunteers, so they might be outdated.

Search


Regions


Airport information page

Radio informations:
Melbourne Center - 122.6 MHz
Common traffic adv. frequency (CTAF) - 126.7 MHz

Airport informations:
Latitude: 32° 00' 05.00" S
Longitude: 141° 28' 18.00" E
Elevation: 958 feet - 292 meters
Operating hours: N/A
Operating agency: Civil government, landing fees and diplomatic clearance may be required
Timezone: UTC+9:30(+10:30DT)
Fuel: Jet A1, without icing nhibitor.

100/130 MIL Spec, low lead, aviation gasoline (BLUE)

Runway information:
05/23 - 8251 x 98 feet< - >2515 x 30 meters
14/32 - 3281 x 98 feet< - >1000 x 30 meters

Recent METARs:
YBHI 141600Z AUTO 19011KT 9999 // NCD 18/09 Q1018
YBHI 141700Z AUTO 19013KT 9999 // NCD 16/08 Q1019
YBHI 141700Z AUTO 19013KT 9999 // NCD 16/08 Q1019

Airport on the map: